Seaspan Champion — VDPS — position and weather

sailwx.info

Track history (hours):
 
Tides and Currents Weather Stations Pressure Air Temp Water Temp Dewpoint Dewpoint Depression Visibility Wind Speed Wind Dir Waves Ship Positions

Seaspan Champion

Last reported at 2016-Aug-31 15:33 UTC. Time now 2016-Aug-31 16:06 UTC.
Position N 49°11' W 123°42'.

Length 24 m; draft 5 m.

Type: Towing. MMSI: 316003661.

Date/timePositionNaut miles runAvg speedWind from/ knotsBaromVisibWave heightAir tempDewpointWater temp
2016-Aug-31 15:33N 49°11' W 123°42'7 7.1
2016-Aug-31 14:33N 49°12' W 123°53'3 3.0
2016-Aug-31 13:32N 49°09' W 123°51'2 2.4
2016-Aug-31 12:33N 49°11' W 123°53'4 4.3
2016-Aug-31 11:33N 49°13' W 123°47'6 6.2
2016-Aug-31 10:33N 49°14' W 123°38'6 6.2
2016-Aug-31 09:33N 49°15' W 123°28'6 6.3
2016-Aug-31 08:33N 49°16' W 123°19'1 1.0
2016-Aug-31 07:33N 49°16' W 123°18'1 0.6
2016-Aug-31 06:33N 49°16' W 123°18'4 4.1
2016-Aug-31 05:33N 49°17' W 123°24'7 6.6
2016-Aug-31 04:33N 49°19' W 123°33'6 6.5
2016-Aug-31 03:33N 49°22' W 123°42'6 6.3
2016-Aug-31 02:33N 49°26' W 123°51'7 6.6
2016-Aug-31 01:33N 49°30' W 123°58'6 6.1
2016-Aug-31 00:33N 49°34' W 124°05'6 0.5
2016-Aug-30 12:31N 49°29' W 124°03'7 5.2
2016-Aug-30 11:07N 49°25' W 123°53'3 5.6
2016-Aug-30 10:31N 49°24' W 123°48'5 5.5
2016-Aug-30 09:33N 49°23' W 123°40'6 5.5
2016-Aug-30 08:33N 49°20' W 123°33'5 5.2
2016-Aug-30 07:33N 49°19' W 123°25'5 5.2
2016-Aug-30 06:33N 49°17' W 123°18'4 4.4
2016-Aug-30 05:33N 49°13' W 123°19'6 5.5
2016-Aug-30 04:33N 49°07' W 123°19'5 4.9
2016-Aug-30 03:33N 49°07' W 123°12'6 5.6
2016-Aug-30 02:33N 49°08' W 123°03'4 4.0
2016-Aug-30 01:33N 49°09' W 122°58'2 1.6
2016-Aug-30 00:33N 49°10' W 122°55'0 0.0
2016-Aug-29 23:33N 49°10' W 122°55'0 0.0
2016-Aug-29 22:33N 49°10' W 122°55'0 0.0
2016-Aug-29 21:33N 49°10' W 122°55'0 0.0
2016-Aug-29 20:33N 49°10' W 122°55'0 0.0
2016-Aug-29 19:33N 49°10' W 122°55'0 0.0
2016-Aug-29 18:33N 49°10' W 122°55'0 0.0
2016-Aug-29 17:33N 49°10' W 122°55'0 0.0
2016-Aug-29 16:33N 49°10' W 122°55'0 0.0
2016-Aug-29 15:33N 49°10' W 122°55'0 0.0
2016-Aug-29 14:33N 49°10' W 122°55'0 0.0
2016-Aug-29 13:33N 49°10' W 122°55'0 0.0
2016-Aug-29 12:33N 49°10' W 122°55'1 1.4
2016-Aug-29 11:33N 49°12' W 122°55'5 5.0
2016-Aug-29 10:33N 49°09' W 123°01'5 5.5
2016-Aug-29 09:33N 49°06' W 123°09'5 4.9
2016-Aug-29 08:33N 49°07' W 123°16'4 3.5
2016-Aug-29 07:33N 49°10' W 123°19'6 6.4
2016-Aug-29 06:33N 49°16' W 123°20'2 1.7
2016-Aug-29 05:33N 49°17' W 123°23'6 5.8
2016-Aug-29 04:33N 49°20' W 123°30'5 5.2
2016-Aug-29 03:33N 49°22' W 123°38'5 4.7
2016-Aug-29 02:33N 49°25' W 123°44'4 4.4
2016-Aug-29 01:33N 49°27' W 123°50'4 4.4
2016-Aug-29 00:33N 49°29' W 123°56'4 4.5
2016-Aug-28 23:33N 49°32' W 124°00'5 4.9
2016-Aug-28 22:33N 49°36' W 124°06'5 4.8
2016-Aug-28 21:33N 49°39' W 124°11'4 4.4
2016-Aug-28 20:33N 49°42' W 124°16'4 4.1
2016-Aug-28 19:33N 49°44' W 124°22'4 4.0
2016-Aug-28 18:33N 49°46' W 124°27'4 4.3
2016-Aug-28 17:33N 49°49' W 124°33'4 3.5
2016-Aug-28 16:33N 49°52' W 124°34'1 1.2
2016-Aug-28 15:33N 49°51' W 124°33'5 4.9
2016-Aug-28 14:33N 49°47' W 124°29'6 5.7
2016-Aug-28 13:33N 49°44' W 124°22'6 5.8
2016-Aug-28 12:33N 49°40' W 124°16'6 5.7
2016-Aug-28 11:33N 49°35' W 124°10'5 5.3
2016-Aug-28 10:33N 49°31' W 124°05'5 5.2
2016-Aug-28 09:33N 49°27' W 123°59'5 5.3
2016-Aug-28 08:33N 49°25' W 123°51'6 5.5
2016-Aug-28 07:33N 49°24' W 123°43'6 5.9
2016-Aug-28 06:33N 49°22' W 123°35'5 5.4
2016-Aug-28 05:33N 49°20' W 123°27'6 5.7
2016-Aug-28 04:33N 49°18' W 123°19'3 3.4
2016-Aug-28 03:33N 49°15' W 123°18'3 3.1
2016-Aug-28 02:33N 49°12' W 123°18'3 3.3
2016-Aug-28 01:33N 49°09' W 123°19'3 2.7
2016-Aug-28 00:33N 49°06' W 123°18'5 5.4
2016-Aug-27 23:33N 49°07' W 123°10'5 5.2
2016-Aug-27 22:33N 49°09' W 123°03'4 3.6
2016-Aug-27 21:33N 49°09' W 122°57'1 1.4
2016-Aug-27 20:33N 49°10' W 122°55'0 0.0
2016-Aug-27 19:33N 49°10' W 122°55'0 0.0
2016-Aug-27 18:33N 49°10' W 122°55'0 0.0
2016-Aug-27 17:33N 49°10' W 122°55'0 0.0
2016-Aug-27 16:33N 49°10' W 122°55'0 0.0
2016-Aug-27 15:33N 49°10' W 122°55'0 0.0
2016-Aug-27 14:33N 49°10' W 122°55'0 0.0
2016-Aug-27 13:33N 49°10' W 122°55'0 0.0
2016-Aug-27 12:33N 49°10' W 122°55'0 0.0
2016-Aug-27 11:33N 49°10' W 122°55'3 2.7
2016-Aug-27 10:33N 49°09' W 122°59'6 6.3
2016-Aug-27 09:33N 49°06' W 123°08'6 6.4
2016-Aug-27 08:33N 49°06' W 123°18'6 5.8
2016-Aug-27 07:33N 49°12' W 123°18'4 4.4
2016-Aug-27 06:33N 49°16' W 123°20'14 7.2
2016-Aug-27 04:33N 49°22' W 123°41'7 7.2
2016-Aug-27 03:33N 49°25' W 123°51'7 7.1
2016-Aug-27 02:33N 49°28' W 124°01'7 7.1
2016-Aug-27 01:33N 49°34' W 124°07'8 7.6
2016-Aug-27 00:33N 49°39' W 124°15'7 7.4
2016-Aug-26 23:33N 49°44' W 124°24'7 7.3
2016-Aug-26 22:33N 49°48' W 124°33'4 3.8
2016-Aug-26 21:33N 49°52' W 124°34'2 2.4
2016-Aug-26 20:33N 49°50' W 124°33'5 4.7
2016-Aug-26 19:33N 49°46' W 124°28'5 5.1
2016-Aug-26 18:33N 49°43' W 124°22'5 5.1
2016-Aug-26 17:33N 49°39' W 124°16'5 4.9
2016-Aug-26 16:34N 49°36' W 124°11'5 5.1
2016-Aug-26 15:33N 49°32' W 124°06'5 4.9
2016-Aug-26 14:34N 49°29' W 124°01'5 4.7
2016-Aug-26 13:34N 49°26' W 123°55'5 5.0
2016-Aug-26 12:34N 49°24' W 123°48'5 5.0
2016-Aug-26 11:32N 49°22' W 123°40'5 5.0
2016-Aug-26 10:33N 49°20' W 123°33'5 4.9
2016-Aug-26 09:34N 49°18' W 123°26'5 4.8
2016-Aug-26 08:33N 49°16' W 123°20'2 1.9
2016-Aug-26 07:34N 49°15' W 123°18'5 5.3
2016-Aug-26 06:34N 49°10' W 123°19'7 3.4
2016-Aug-26 04:33N 49°07' W 123°10'6 5.6
2016-Aug-26 03:33N 49°09' W 123°02'3 3.1
2016-Aug-26 02:33N 49°09' W 122°57'0 0.4
2016-Aug-26 01:34N 49°10' W 122°58'3 3.3
2016-Aug-26 00:34N 49°09' W 123°03'6 6.0
2016-Aug-25 23:34N 49°07' W 123°12'5 4.8
2016-Aug-25 22:33N 49°09' W 123°19'7 6.8
2016-Aug-25 21:33N 49°15' W 123°18'6 5.7
2016-Aug-25 20:33N 49°11' W 123°23'6 6.4
2016-Aug-25 19:33N 49°06' W 123°29'6 6.2
2016-Aug-25 18:33N 49°01' W 123°35'6 6.0
2016-Aug-25 17:32N 48°55' W 123°37'3 2.6
2016-Aug-25 16:33N 48°52' W 123°38'4 4.4
2016-Aug-25 15:33N 48°55' W 123°43'4 4.0
2016-Aug-25 14:33N 48°53' W 123°38'0 0.4
2016-Aug-25 13:33N 48°52' W 123°38'3 2.8
2016-Aug-25 12:33N 48°55' W 123°37'4 3.6
2016-Aug-25 11:34N 48°59' W 123°37'4 4.3
2016-Aug-25 10:33N 49°02' W 123°33'4 4.2
2016-Aug-25 09:34N 49°06' W 123°30'4 4.4
2016-Aug-25 08:33N 49°09' W 123°26'5 4.9
2016-Aug-25 07:33N 49°13' W 123°21'4 3.6
2016-Aug-25 06:34N 49°16' W 123°17'0 0.1
2016-Aug-25 04:33N 49°16' W 123°17'6 5.5
2016-Aug-25 03:34N 49°15' W 123°26'7 6.9
2016-Aug-25 02:34N 49°14' W 123°36'7 6.9
2016-Aug-25 01:33N 49°13' W 123°47'5 5.2
2016-Aug-25 00:33N 49°10' W 123°53'1 0.5
2016-Aug-24 23:33N 49°09' W 123°53'1 1.3
2016-Aug-24 22:33N 49°09' W 123°51'4 3.7
2016-Aug-24 21:33N 49°13' W 123°51'5 5.0
2016-Aug-24 20:33N 49°12' W 123°43'5 5.5
2016-Aug-24 19:33N 49°10' W 123°35'6 5.6
2016-Aug-24 18:34N 49°08' W 123°27'5 5.4
2016-Aug-24 17:33N 49°06' W 123°20'5 5.3
2016-Aug-24 16:33N 49°07' W 123°12'6 5.6
2016-Aug-24 15:34N 49°08' W 123°04'5 4.5
2016-Aug-24 14:34N 49°09' W 122°57'4 3.7
2016-Aug-24 13:33N 49°09' W 123°03'5 5.0
2016-Aug-24 12:33N 49°07' W 123°10'4 4.0
2016-Aug-24 11:33N 49°07' W 123°16'5 4.6
2016-Aug-24 10:33N 49°05' W 123°22'7 7.4
2016-Aug-24 09:33N 49°02' W 123°32'4 3.8
2016-Aug-24 08:23N 48°58' W 123°34'2 1.9
2016-Aug-24 07:33N 48°58' W 123°36'5 3.8
2016-Aug-24 06:18N 48°54' W 123°36'1 0.4
2016-Aug-24 04:32N 48°53' W 123°37'6 6.3
2016-Aug-24 03:33N 48°59' W 123°37'5 4.8
2016-Aug-24 02:34N 49°02' W 123°31'5 5.5
2016-Aug-24 01:34N 49°04' W 123°23'7 6.7
2016-Aug-24 00:34N 49°08' W 123°14'7 7.1
2016-Aug-23 23:34N 49°08' W 123°04'4 4.2
2016-Aug-23 22:33N 49°09' W 122°58'0 0.0
2016-Aug-23 21:34N 49°09' W 122°58'1 0.5
2016-Aug-23 20:33N 49°10' W 122°57'7 7.2
2016-Aug-23 19:33N 49°07' W 123°07'3 3.0
2016-Aug-23 18:33N 49°07' W 123°11'0 0.0
2016-Aug-23 17:33N 49°07' W 123°11'1 0.5
2016-Aug-23 16:34N 49°07' W 123°11'7 7.4
2016-Aug-23 15:34N 49°09' W 123°00'5 4.8
2016-Aug-23 14:33N 49°07' W 123°06'5 4.8
2016-Aug-23 13:33N 49°08' W 123°13'4 3.8
2016-Aug-23 12:32N 49°07' W 123°19'6 6.0
2016-Aug-23 11:33N 49°13' W 123°18'3 3.5
2016-Aug-23 10:34N 49°16' W 123°19'5 5.1
2016-Aug-23 09:33N 49°18' W 123°26'5 5.1
2016-Aug-23 08:33N 49°21' W 123°33'5 5.0
2016-Aug-23 07:33N 49°23' W 123°40'5 5.3
2016-Aug-23 06:33N 49°26' W 123°47'5 5.1
2016-Aug-23 05:33N 49°28' W 123°54'5 5.3
2016-Aug-23 04:33N 49°32' W 123°60'6 5.8
2016-Aug-23 03:33N 49°36' W 124°06'5 5.4
2016-Aug-23 02:33N 49°39' W 124°13'5 5.3
2016-Aug-23 01:33N 49°42' W 124°19'5 5.0
2016-Aug-23 00:33N 49°45' W 124°26'5 5.3
2016-Aug-22 23:33N 49°48' W 124°32'4 3.8
2016-Aug-22 22:32N 49°52' W 124°34'1 0.6
2016-Aug-22 21:34N 49°51' W 124°33'5 4.7
2016-Aug-22 20:33N 49°47' W 124°30'5 5.0
2016-Aug-22 19:33N 49°44' W 124°24'5 4.6
2016-Aug-22 18:32N 49°41' W 124°19'5 5.0
2016-Aug-22 17:33N 49°38' W 124°13'5 5.1
2016-Aug-22 16:30N 49°34' W 124°08'5 4.9
2016-Aug-22 15:33N 49°30' W 124°03'5 5.3
2016-Aug-22 14:32N 49°27' W 123°57'5 5.6
2016-Aug-22 13:33N 49°25' W 123°49'5 5.2
2016-Aug-22 12:33N 49°22' W 123°42'5 5.0
2016-Aug-22 11:33N 49°21' W 123°35'4 4.4
2016-Aug-22 10:33N 49°20' W 123°28'4 4.4
2016-Aug-22 09:33N 49°20' W 123°21'2 1.7
2016-Aug-22 08:34N 49°19' W 123°19'5 5.0
2016-Aug-22 07:33N 49°14' W 123°18'5 5.2
2016-Aug-22 06:33N 49°08' W 123°19'3 2.8
2016-Aug-22 05:33N 49°08' W 123°15'5 5.3
2016-Aug-22 04:33N 49°07' W 123°07'5 4.9
2016-Aug-22 03:33N 49°09' W 123°01'4 3.6
2016-Aug-22 02:33N 49°10' W 122°56'0 0.2
2016-Aug-22 01:33N 49°10' W 122°55'0 0.0
2016-Aug-22 00:33N 49°10' W 122°55'0 0.0
2016-Aug-21 23:33N 49°10' W 122°55'0 0.0
2016-Aug-21 22:33N 49°10' W 122°55'  
Track history (hours):
 
Tides and Currents Weather Stations Pressure Air Temp Water Temp Dewpoint Dewpoint Depression Visibility Wind Speed Wind Dir Waves Ship Positions

Seaspan Champion

Last reported at 2016-Aug-31 15:33 UTC. Time now 2016-Aug-31 16:06 UTC.
Position N 49°11' W 123°42'.

Length 24 m; draft 5 m.

Type: Towing. MMSI: 316003661.

Date/timePositionNaut miles runAvg speedWind from/ knotsBaromVisibWave heightAir tempDewpointWater temp
2016-Aug-31 15:33N 49°11' W 123°42'7 7.1
2016-Aug-31 14:33N 49°12' W 123°53'3 3.0
2016-Aug-31 13:32N 49°09' W 123°51'2 2.4
2016-Aug-31 12:33N 49°11' W 123°53'4 4.3
2016-Aug-31 11:33N 49°13' W 123°47'6 6.2
2016-Aug-31 10:33N 49°14' W 123°38'6 6.2
2016-Aug-31 09:33N 49°15' W 123°28'6 6.3
2016-Aug-31 08:33N 49°16' W 123°19'1 1.0
2016-Aug-31 07:33N 49°16' W 123°18'1 0.6
2016-Aug-31 06:33N 49°16' W 123°18'4 4.1
2016-Aug-31 05:33N 49°17' W 123°24'7 6.6
2016-Aug-31 04:33N 49°19' W 123°33'6 6.5
2016-Aug-31 03:33N 49°22' W 123°42'6 6.3
2016-Aug-31 02:33N 49°26' W 123°51'7 6.6
2016-Aug-31 01:33N 49°30' W 123°58'6 6.1
2016-Aug-31 00:33N 49°34' W 124°05'6 0.5
2016-Aug-30 12:31N 49°29' W 124°03'7 5.2
2016-Aug-30 11:07N 49°25' W 123°53'3 5.6
2016-Aug-30 10:31N 49°24' W 123°48'5 5.5
2016-Aug-30 09:33N 49°23' W 123°40'6 5.5
2016-Aug-30 08:33N 49°20' W 123°33'5 5.2
2016-Aug-30 07:33N 49°19' W 123°25'5 5.2
2016-Aug-30 06:33N 49°17' W 123°18'4 4.4
2016-Aug-30 05:33N 49°13' W 123°19'6 5.5
2016-Aug-30 04:33N 49°07' W 123°19'5 4.9
2016-Aug-30 03:33N 49°07' W 123°12'6 5.6
2016-Aug-30 02:33N 49°08' W 123°03'4 4.0
2016-Aug-30 01:33N 49°09' W 122°58'2 1.6
2016-Aug-30 00:33N 49°10' W 122°55'0 0.0
2016-Aug-29 23:33N 49°10' W 122°55'0 0.0
2016-Aug-29 22:33N 49°10' W 122°55'0 0.0
2016-Aug-29 21:33N 49°10' W 122°55'0 0.0
2016-Aug-29 20:33N 49°10' W 122°55'0 0.0
2016-Aug-29 19:33N 49°10' W 122°55'0 0.0
2016-Aug-29 18:33N 49°10' W 122°55'0 0.0
2016-Aug-29 17:33N 49°10' W 122°55'0 0.0
2016-Aug-29 16:33N 49°10' W 122°55'0 0.0
2016-Aug-29 15:33N 49°10' W 122°55'0 0.0
2016-Aug-29 14:33N 49°10' W 122°55'0 0.0
2016-Aug-29 13:33N 49°10' W 122°55'0 0.0
2016-Aug-29 12:33N 49°10' W 122°55'1 1.4
2016-Aug-29 11:33N 49°12' W 122°55'5 5.0
2016-Aug-29 10:33N 49°09' W 123°01'5 5.5
2016-Aug-29 09:33N 49°06' W 123°09'5 4.9
2016-Aug-29 08:33N 49°07' W 123°16'4 3.5
2016-Aug-29 07:33N 49°10' W 123°19'6 6.4
2016-Aug-29 06:33N 49°16' W 123°20'2 1.7
2016-Aug-29 05:33N 49°17' W 123°23'6 5.8
2016-Aug-29 04:33N 49°20' W 123°30'5 5.2
2016-Aug-29 03:33N 49°22' W 123°38'5 4.7
2016-Aug-29 02:33N 49°25' W 123°44'4 4.4
2016-Aug-29 01:33N 49°27' W 123°50'4 4.4
2016-Aug-29 00:33N 49°29' W 123°56'4 4.5
2016-Aug-28 23:33N 49°32' W 124°00'5 4.9
2016-Aug-28 22:33N 49°36' W 124°06'5 4.8
2016-Aug-28 21:33N 49°39' W 124°11'4 4.4
2016-Aug-28 20:33N 49°42' W 124°16'4 4.1
2016-Aug-28 19:33N 49°44' W 124°22'4 4.0
2016-Aug-28 18:33N 49°46' W 124°27'4 4.3
2016-Aug-28 17:33N 49°49' W 124°33'4 3.5
2016-Aug-28 16:33N 49°52' W 124°34'1 1.2
2016-Aug-28 15:33N 49°51' W 124°33'5 4.9
2016-Aug-28 14:33N 49°47' W 124°29'6 5.7
2016-Aug-28 13:33N 49°44' W 124°22'6 5.8
2016-Aug-28 12:33N 49°40' W 124°16'6 5.7
2016-Aug-28 11:33N 49°35' W 124°10'5 5.3
2016-Aug-28 10:33N 49°31' W 124°05'5 5.2
2016-Aug-28 09:33N 49°27' W 123°59'5 5.3
2016-Aug-28 08:33N 49°25' W 123°51'6 5.5
2016-Aug-28 07:33N 49°24' W 123°43'6 5.9
2016-Aug-28 06:33N 49°22' W 123°35'5 5.4
2016-Aug-28 05:33N 49°20' W 123°27'6 5.7
2016-Aug-28 04:33N 49°18' W 123°19'3 3.4
2016-Aug-28 03:33N 49°15' W 123°18'3 3.1
2016-Aug-28 02:33N 49°12' W 123°18'3 3.3
2016-Aug-28 01:33N 49°09' W 123°19'3 2.7
2016-Aug-28 00:33N 49°06' W 123°18'5 5.4
2016-Aug-27 23:33N 49°07' W 123°10'5 5.2
2016-Aug-27 22:33N 49°09' W 123°03'4 3.6
2016-Aug-27 21:33N 49°09' W 122°57'1 1.4
2016-Aug-27 20:33N 49°10' W 122°55'0 0.0
2016-Aug-27 19:33N 49°10' W 122°55'0 0.0
2016-Aug-27 18:33N 49°10' W 122°55'0 0.0
2016-Aug-27 17:33N 49°10' W 122°55'0 0.0
2016-Aug-27 16:33N 49°10' W 122°55'0 0.0
2016-Aug-27 15:33N 49°10' W 122°55'0 0.0
2016-Aug-27 14:33N 49°10' W 122°55'0 0.0
2016-Aug-27 13:33N 49°10' W 122°55'0 0.0
2016-Aug-27 12:33N 49°10' W 122°55'0 0.0
2016-Aug-27 11:33N 49°10' W 122°55'3 2.7
2016-Aug-27 10:33N 49°09' W 122°59'6 6.3
2016-Aug-27 09:33N 49°06' W 123°08'6 6.4
2016-Aug-27 08:33N 49°06' W 123°18'6 5.8
2016-Aug-27 07:33N 49°12' W 123°18'4 4.4
2016-Aug-27 06:33N 49°16' W 123°20'14 7.2
2016-Aug-27 04:33N 49°22' W 123°41'7 7.2
2016-Aug-27 03:33N 49°25' W 123°51'7 7.1
2016-Aug-27 02:33N 49°28' W 124°01'7 7.1
2016-Aug-27 01:33N 49°34' W 124°07'8 7.6
2016-Aug-27 00:33N 49°39' W 124°15'7 7.4
2016-Aug-26 23:33N 49°44' W 124°24'7 7.3
2016-Aug-26 22:33N 49°48' W 124°33'4 3.8
2016-Aug-26 21:33N 49°52' W 124°34'2 2.4
2016-Aug-26 20:33N 49°50' W 124°33'5 4.7
2016-Aug-26 19:33N 49°46' W 124°28'5 5.1
2016-Aug-26 18:33N 49°43' W 124°22'5 5.1
2016-Aug-26 17:33N 49°39' W 124°16'5 4.9
2016-Aug-26 16:34N 49°36' W 124°11'5 5.1
2016-Aug-26 15:33N 49°32' W 124°06'5 4.9
2016-Aug-26 14:34N 49°29' W 124°01'5 4.7
2016-Aug-26 13:34N 49°26' W 123°55'5 5.0
2016-Aug-26 12:34N 49°24' W 123°48'5 5.0
2016-Aug-26 11:32N 49°22' W 123°40'5 5.0
2016-Aug-26 10:33N 49°20' W 123°33'5 4.9
2016-Aug-26 09:34N 49°18' W 123°26'5 4.8
2016-Aug-26 08:33N 49°16' W 123°20'2 1.9
2016-Aug-26 07:34N 49°15' W 123°18'5 5.3
2016-Aug-26 06:34N 49°10' W 123°19'7 3.4
2016-Aug-26 04:33N 49°07' W 123°10'6 5.6
2016-Aug-26 03:33N 49°09' W 123°02'3 3.1
2016-Aug-26 02:33N 49°09' W 122°57'0 0.4
2016-Aug-26 01:34N 49°10' W 122°58'3 3.3
2016-Aug-26 00:34N 49°09' W 123°03'6 6.0
2016-Aug-25 23:34N 49°07' W 123°12'5 4.8
2016-Aug-25 22:33N 49°09' W 123°19'7 6.8
2016-Aug-25 21:33N 49°15' W 123°18'6 5.7
2016-Aug-25 20:33N 49°11' W 123°23'6 6.4
2016-Aug-25 19:33N 49°06' W 123°29'6 6.2
2016-Aug-25 18:33N 49°01' W 123°35'6 6.0
2016-Aug-25 17:32N 48°55' W 123°37'3 2.6
2016-Aug-25 16:33N 48°52' W 123°38'4 4.4
2016-Aug-25 15:33N 48°55' W 123°43'4 4.0
2016-Aug-25 14:33N 48°53' W 123°38'0 0.4
2016-Aug-25 13:33N 48°52' W 123°38'3 2.8
2016-Aug-25 12:33N 48°55' W 123°37'4 3.6
2016-Aug-25 11:34N 48°59' W 123°37'4 4.3
2016-Aug-25 10:33N 49°02' W 123°33'4 4.2
2016-Aug-25 09:34N 49°06' W 123°30'4 4.4
2016-Aug-25 08:33N 49°09' W 123°26'5 4.9
2016-Aug-25 07:33N 49°13' W 123°21'4 3.6
2016-Aug-25 06:34N 49°16' W 123°17'0 0.1
2016-Aug-25 04:33N 49°16' W 123°17'6 5.5
2016-Aug-25 03:34N 49°15' W 123°26'7 6.9
2016-Aug-25 02:34N 49°14' W 123°36'7 6.9
2016-Aug-25 01:33N 49°13' W 123°47'5 5.2
2016-Aug-25 00:33N 49°10' W 123°53'1 0.5
2016-Aug-24 23:33N 49°09' W 123°53'1 1.3
2016-Aug-24 22:33N 49°09' W 123°51'4 3.7
2016-Aug-24 21:33N 49°13' W 123°51'5 5.0
2016-Aug-24 20:33N 49°12' W 123°43'5 5.5
2016-Aug-24 19:33N 49°10' W 123°35'6 5.6
2016-Aug-24 18:34N 49°08' W 123°27'5 5.4
2016-Aug-24 17:33N 49°06' W 123°20'5 5.3
2016-Aug-24 16:33N 49°07' W 123°12'6 5.6
2016-Aug-24 15:34N 49°08' W 123°04'5 4.5
2016-Aug-24 14:34N 49°09' W 122°57'4 3.7
2016-Aug-24 13:33N 49°09' W 123°03'5 5.0
2016-Aug-24 12:33N 49°07' W 123°10'4 4.0
2016-Aug-24 11:33N 49°07' W 123°16'5 4.6
2016-Aug-24 10:33N 49°05' W 123°22'7 7.4
2016-Aug-24 09:33N 49°02' W 123°32'4 3.8
2016-Aug-24 08:23N 48°58' W 123°34'2 1.9
2016-Aug-24 07:33N 48°58' W 123°36'5 3.8
2016-Aug-24 06:18N 48°54' W 123°36'1 0.4
2016-Aug-24 04:32N 48°53' W 123°37'6 6.3
2016-Aug-24 03:33N 48°59' W 123°37'5 4.8
2016-Aug-24 02:34N 49°02' W 123°31'5 5.5
2016-Aug-24 01:34N 49°04' W 123°23'7 6.7
2016-Aug-24 00:34N 49°08' W 123°14'7 7.1
2016-Aug-23 23:34N 49°08' W 123°04'4 4.2
2016-Aug-23 22:33N 49°09' W 122°58'0 0.0
2016-Aug-23 21:34N 49°09' W 122°58'1 0.5
2016-Aug-23 20:33N 49°10' W 122°57'7 7.2
2016-Aug-23 19:33N 49°07' W 123°07'3 3.0
2016-Aug-23 18:33N 49°07' W 123°11'0 0.0
2016-Aug-23 17:33N 49°07' W 123°11'1 0.5
2016-Aug-23 16:34N 49°07' W 123°11'7 7.4
2016-Aug-23 15:34N 49°09' W 123°00'5 4.8
2016-Aug-23 14:33N 49°07' W 123°06'5 4.8
2016-Aug-23 13:33N 49°08' W 123°13'4 3.8
2016-Aug-23 12:32N 49°07' W 123°19'6 6.0
2016-Aug-23 11:33N 49°13' W 123°18'3 3.5
2016-Aug-23 10:34N 49°16' W 123°19'5 5.1
2016-Aug-23 09:33N 49°18' W 123°26'5 5.1
2016-Aug-23 08:33N 49°21' W 123°33'5 5.0
2016-Aug-23 07:33N 49°23' W 123°40'5 5.3
2016-Aug-23 06:33N 49°26' W 123°47'5 5.1
2016-Aug-23 05:33N 49°28' W 123°54'5 5.3
2016-Aug-23 04:33N 49°32' W 123°60'6 5.8
2016-Aug-23 03:33N 49°36' W 124°06'5 5.4
2016-Aug-23 02:33N 49°39' W 124°13'5 5.3
2016-Aug-23 01:33N 49°42' W 124°19'5 5.0
2016-Aug-23 00:33N 49°45' W 124°26'5 5.3
2016-Aug-22 23:33N 49°48' W 124°32'4 3.8
2016-Aug-22 22:32N 49°52' W 124°34'1 0.6
2016-Aug-22 21:34N 49°51' W 124°33'5 4.7
2016-Aug-22 20:33N 49°47' W 124°30'5 5.0
2016-Aug-22 19:33N 49°44' W 124°24'5 4.6
2016-Aug-22 18:32N 49°41' W 124°19'5 5.0
2016-Aug-22 17:33N 49°38' W 124°13'5 5.1
2016-Aug-22 16:30N 49°34' W 124°08'5 4.9
2016-Aug-22 15:33N 49°30' W 124°03'5 5.3
2016-Aug-22 14:32N 49°27' W 123°57'5 5.6
2016-Aug-22 13:33N 49°25' W 123°49'5 5.2
2016-Aug-22 12:33N 49°22' W 123°42'5 5.0
2016-Aug-22 11:33N 49°21' W 123°35'4 4.4
2016-Aug-22 10:33N 49°20' W 123°28'4 4.4
2016-Aug-22 09:33N 49°20' W 123°21'2 1.7
2016-Aug-22 08:34N 49°19' W 123°19'5 5.0
2016-Aug-22 07:33N 49°14' W 123°18'5 5.2
2016-Aug-22 06:33N 49°08' W 123°19'3 2.8
2016-Aug-22 05:33N 49°08' W 123°15'5 5.3
2016-Aug-22 04:33N 49°07' W 123°07'5 4.9
2016-Aug-22 03:33N 49°09' W 123°01'4 3.6
2016-Aug-22 02:33N 49°10' W 122°56'0 0.2
2016-Aug-22 01:33N 49°10' W 122°55'0 0.0
2016-Aug-22 00:33N 49°10' W 122°55'0 0.0
2016-Aug-21 23:33N 49°10' W 122°55'0 0.0
2016-Aug-21 22:33N 49°10' W 122°55'  

Dump ship's entire track history